Time;durP1;ratioP1;P1;durP2;ratioP2;P2;SDS_P1;SDS_P2;PMS_P1;PMS_P2;Temp;Humidity;BMP_temperature;BMP_pressure;BME280_temperature;BME280_humidity;BME280_pressure;Samples;Min_cycle;Max_cycle;Signal;HPM_P1;HPM_P2
2022/09/30 00:00:28;;;;;;;14.93;9.20;;;7.30;99.90;;;;;;6274631;22;20391;-87
2022/09/30 00:02:56;;;;;;;13.67;8.70;;;7.30;99.90;;;;;;6248776;22;20042;-87
2022/09/30 00:05:22;;;;;;;15.23;9.10;;;7.30;99.90;;;;;;6275806;22;20022;-86
2022/09/30 00:07:48;;;;;;;15.60;8.87;;;7.30;99.90;;;;;;6275066;22;20012;-86
2022/09/30 00:10:16;;;;;;;14.10;7.73;;;7.20;99.90;;;;;;6248564;22;20141;-87
2022/09/30 00:12:41;;;;;;;13.00;8.70;;;7.20;99.90;;;;;;6276340;22;20065;-87
2022/09/30 00:15:07;;;;;;;13.27;8.45;;;7.20;99.90;;;;;;6274929;22;20375;-87
2022/09/30 00:17:33;;;;;;;15.20;9.30;;;7.20;99.90;;;;;;6248180;22;20011;-86
2022/09/30 00:19:58;;;;;;;14.43;9.00;;;7.20;99.90;;;;;;6275602;22;20015;-86
2022/09/30 00:22:24;;;;;;;14.93;9.60;;;7.10;99.90;;;;;;6247347;22;20016;-87
2022/09/30 00:24:49;;;;;;;13.65;8.70;;;7.10;99.90;;;;;;6248710;22;20007;-87
2022/09/30 00:27:17;;;;;;;13.60;8.77;;;7.10;99.90;;;;;;6248502;22;20050;-87
2022/09/30 00:29:43;;;;;;;13.80;8.27;;;7.10;99.90;;;;;;6247969;22;20011;-87
2022/09/30 00:32:09;;;;;;;15.52;8.75;;;7.10;99.90;;;;;;6248590;22;20026;-86
2022/09/30 00:34:35;;;;;;;14.10;7.88;;;7.00;99.90;;;;;;6276343;22;20015;-86
2022/09/30 00:37:01;;;;;;;13.23;7.97;;;7.00;99.90;;;;;;6275235;22;20004;-87
2022/09/30 00:39:28;;;;;;;14.95;8.18;;;7.00;99.90;;;;;;6248319;22;20030;-87
2022/09/30 00:42:05;;;;;;;14.80;8.60;;;6.90;99.90;;;;;;6247446;22;20073;-86
2022/09/30 00:44:43;;;;;;;13.60;8.37;;;6.90;99.90;;;;;;6226262;23;20031;-87
2022/09/30 00:47:38;;;;;;;15.67;10.20;;;6.90;99.90;;;;;;6218003;23;20016;-86
2022/09/30 00:50:47;;;;;;;15.90;9.90;;;6.90;99.90;;;;;;6244795;23;20013;-87
2022/09/30 00:53:17;;;;;;;19.57;10.60;;;6.90;99.90;;;;;;6218028;23;20062;-87
2022/09/30 00:55:54;;;;;;;17.03;11.27;;;6.90;99.90;;;;;;6245007;23;20018;-86
2022/09/30 00:58:45;;;;;;;18.27;11.43;;;6.90;99.90;;;;;;6217976;23;20095;-86
2022/09/30 01:01:11;;;;;;;15.33;10.10;;;6.90;99.90;;;;;;6217919;23;20020;-87
2022/09/30 01:03:44;;;;;;;17.17;11.60;;;7.00;99.90;;;;;;6217153;23;20325;-86
2022/09/30 01:06:09;;;;;;;16.77;11.80;;;6.90;99.90;;;;;;6217304;23;20344;-87
2022/09/30 01:08:38;;;;;;;16.27;11.00;;;6.90;99.90;;;;;;6246531;23;20012;-87
2022/09/30 01:11:04;;;;;;;18.37;12.60;;;6.90;99.90;;;;;;6218725;23;20091;-87
2022/09/30 01:13:35;;;;;;;17.57;11.43;;;7.00;99.90;;;;;;6219676;23;20094;-87
2022/09/30 01:16:19;;;;;;;18.73;12.47;;;7.00;99.90;;;;;;6219415;23;20027;-87
2022/09/30 01:18:52;;;;;;;17.13;12.53;;;7.80;99.90;;;;;;6218958;23;20409;-87
2022/09/30 01:21:32;;;;;;;18.73;12.57;;;6.90;99.90;;;;;;6219563;23;20389;-87
2022/09/30 01:24:29;;;;;;;19.53;13.20;;;6.90;99.90;;;;;;6246272;23;20388;-86
2022/09/30 01:27:11;;;;;;;20.57;13.97;;;7.00;99.90;;;;;;6247270;23;20022;-86
2022/09/30 01:30:01;;;;;;;23.67;14.53;;;7.20;99.90;;;;;;6220345;23;20019;-87
2022/09/30 01:33:11;;;;;;;19.10;13.17;;;7.20;99.90;;;;;;6218696;23;20024;-86
2022/09/30 01:35:44;;;;;;;19.40;13.20;;;7.20;99.90;;;;;;6247041;23;20090;-87
2022/09/30 01:38:29;;;;;;;19.27;13.70;;;7.20;99.90;;;;;;6218415;23;20019;-86
2022/09/30 01:41:17;;;;;;;18.53;12.93;;;7.20;99.90;;;;;;6219989;23;20012;-87
2022/09/30 01:44:04;;;;;;;19.43;14.23;;;7.30;99.90;;;;;;6220040;23;20411;-87
2022/09/30 01:46:43;;;;;;;19.57;13.73;;;7.30;99.90;;;;;;6218786;23;20024;-86
2022/09/30 01:49:39;;;;;;;20.90;14.37;;;7.30;99.90;;;;;;6219262;23;20008;-87
2022/09/30 01:52:08;;;;;;;18.70;13.37;;;7.30;99.90;;;;;;6246028;23;20020;-87
2022/09/30 01:54:51;;;;;;;20.63;14.43;;;7.30;99.90;;;;;;6219971;23;20383;-86
2022/09/30 01:57:26;;;;;;;22.85;16.08;;;7.30;99.90;;;;;;6219498;23;20403;-87
2022/09/30 02:00:06;;;;;;;21.83;15.73;;;7.40;99.90;;;;;;6218687;23;20095;-87
2022/09/30 02:02:44;;;;;;;22.67;15.70;;;7.40;99.90;;;;;;6246586;23;20027;-87
2022/09/30 02:05:19;;;;;;;22.93;15.57;;;7.40;99.90;;;;;;6218750;23;20150;-86
2022/09/30 02:07:53;;;;;;;25.60;15.83;;;7.50;99.90;;;;;;6218310;23;20012;-87
2022/09/30 02:10:55;;;;;;;22.87;16.33;;;8.60;99.90;;;;;;6246445;23;20016;-87
2022/09/30 02:13:34;;;;;;;22.80;15.75;;;7.50;99.90;;;;;;6218293;23;20020;-86
2022/09/30 02:16:11;;;;;;;21.00;14.80;;;7.50;99.90;;;;;;6219892;23;20444;-87
2022/09/30 02:19:19;;;;;;;22.07;14.80;;;7.40;99.90;;;;;;6220148;23;20016;-86
2022/09/30 02:21:52;;;;;;;20.43;14.10;;;7.30;99.90;;;;;;6246006;23;20103;-87
2022/09/30 02:24:24;;;;;;;20.92;14.20;;;7.30;99.90;;;;;;6246646;23;20109;-86
2022/09/30 02:26:53;;;;;;;22.97;14.93;;;7.20;99.90;;;;;;6246900;23;20050;-86
2022/09/30 02:29:27;;;;;;;21.67;15.20;;;7.10;99.90;;;;;;6218223;23;20058;-86
2022/09/30 02:31:58;;;;;;;22.10;14.47;;;7.10;99.90;;;;;;6219554;23;20012;-86
2022/09/30 02:34:34;;;;;;;22.47;15.23;;;8.20;99.90;;;;;;6218066;23;20020;-87
2022/09/30 02:37:09;;;;;;;21.20;14.27;;;7.00;99.90;;;;;;6219292;23;20012;-87
2022/09/30 02:39:51;;;;;;;21.13;14.40;;;7.30;99.90;;;;;;6219434;23;20024;-87
2022/09/30 02:42:27;;;;;;;19.87;13.90;;;6.90;99.90;;;;;;6217946;23;20383;-87
2022/09/30 02:44:56;;;;;;;21.07;15.33;;;6.80;99.90;;;;;;6219311;23;20016;-87
2022/09/30 02:47:39;;;;;;;21.47;15.47;;;6.80;99.90;;;;;;6218600;23;20336;-87
2022/09/30 02:50:31;;;;;;;21.17;14.10;;;6.70;99.90;;;;;;6245625;23;20016;-86
2022/09/30 02:53:17;;;;;;;21.23;14.17;;;6.70;99.90;;;;;;6233305;23;20018;-87
2022/09/30 02:56:28;;;;;;;21.20;14.70;;;6.70;99.90;;;;;;6218504;23;20024;-87
2022/09/30 02:58:55;;;;;;;21.43;14.77;;;6.70;99.90;;;;;;6153871;23;20150;-87
2022/09/30 03:01:24;;;;;;;24.67;15.93;;;6.70;99.90;;;;;;6246167;23;20092;-87
2022/09/30 03:03:57;;;;;;;23.47;15.13;;;6.70;99.90;;;;;;6245665;23;20013;-87
2022/09/30 03:06:23;;;;;;;22.63;15.48;;;6.70;99.90;;;;;;6218801;23;20039;-87
2022/09/30 03:08:51;;;;;;;26.07;16.70;;;8.00;99.90;;;;;;6246343;23;20016;-87
2022/09/30 03:11:22;;;;;;;23.23;15.50;;;6.60;99.90;;;;;;6244746;23;20318;-86
2022/09/30 03:14:17;;;;;;;26.20;18.10;;;6.60;99.90;;;;;;6246336;23;20016;-87
2022/09/30 03:17:08;;;;;;;26.23;17.10;;;6.60;99.90;;;;;;6218045;23;20012;-86
2022/09/30 03:19:33;;;;;;;25.10;17.57;;;6.50;99.90;;;;;;6245940;23;20020;-86
2022/09/30 03:22:28;;;;;;;25.73;17.37;;;6.50;99.90;;;;;;6219048;23;20023;-87
2022/09/30 03:25:09;;;;;;;25.83;16.57;;;6.50;99.90;;;;;;6245436;23;20040;-86
2022/09/30 03:27:50;;;;;;;26.17;17.23;;;6.40;99.90;;;;;;6219105;23;20024;-86
2022/09/30 03:30:20;;;;;;;24.27;16.63;;;6.40;99.90;;;;;;6232002;23;20087;-87
2022/09/30 03:33:20;;;;;;;26.63;16.98;;;6.40;99.90;;;;;;6217639;23;20471;-86
2022/09/30 03:36:09;;;;;;;26.13;18.10;;;6.30;99.90;;;;;;6202986;23;20027;-86
2022/09/30 03:39:02;;;;;;;25.70;17.40;;;6.30;99.90;;;;;;6218074;23;20013;-86
2022/09/30 03:42:00;;;;;;;28.00;18.30;;;6.40;99.90;;;;;;6218381;23;20047;-86
2022/09/30 03:44:40;;;;;;;28.10;19.83;;;6.40;99.90;;;;;;6217468;23;20022;-86
2022/09/30 03:47:10;;;;;;;25.87;17.50;;;6.40;99.90;;;;;;6218238;23;20024;-86
2022/09/30 03:49:44;;;;;;;27.63;18.83;;;6.40;99.90;;;;;;6218652;23;20073;-86
2022/09/30 03:52:12;;;;;;;26.77;18.20;;;6.50;99.90;;;;;;6244108;23;20016;-86
2022/09/30 03:54:55;;;;;;;27.97;18.43;;;6.40;99.90;;;;;;6218914;23;20043;-86
2022/09/30 03:57:21;;;;;;;28.97;18.43;;;7.20;99.90;;;;;;6218417;23;20016;-87
2022/09/30 03:59:46;;;;;;;28.77;17.90;;;6.50;99.90;;;;;;6244823;23;20020;-86
2022/09/30 04:02:12;;;;;;;27.33;18.20;;;6.40;99.90;;;;;;6244586;23;20047;-87
2022/09/30 04:04:41;;;;;;;30.67;19.47;;;6.40;99.90;;;;;;6244306;23;20012;-86
2022/09/30 04:07:11;;;;;;;30.53;20.27;;;6.40;99.90;;;;;;6216823;23;20107;-86
2022/09/30 04:09:39;;;;;;;28.03;18.30;;;6.40;99.90;;;;;;6218512;23;20322;-86
2022/09/30 04:12:06;;;;;;;29.83;19.07;;;7.20;99.90;;;;;;6220142;23;20089;-85
2022/09/30 04:14:33;;;;;;;30.57;19.53;;;6.30;99.90;;;;;;6217475;23;20027;-86
2022/09/30 04:16:59;;;;;;;27.87;18.53;;;7.00;99.90;;;;;;6245317;23;20340;-86
2022/09/30 04:19:25;;;;;;;25.40;16.30;;;6.70;99.90;;;;;;6218030;23;20082;-86
2022/09/30 04:21:51;;;;;;;28.80;18.13;;;6.20;99.90;;;;;;6244456;23;20340;-85
2022/09/30 04:24:18;;;;;;;25.23;17.67;;;6.10;99.90;;;;;;6245296;23;20012;-86
2022/09/30 04:26:44;;;;;;;26.60;17.23;;;6.00;99.90;;;;;;6245259;23;20012;-86
2022/09/30 04:29:09;;;;;;;29.13;17.50;;;6.10;99.90;;;;;;6244253;23;20113;-86
2022/09/30 04:31:35;;;;;;;29.27;18.33;;;6.00;99.90;;;;;;6218588;23;20022;-86
2022/09/30 04:34:01;;;;;;;27.97;19.33;;;6.00;99.90;;;;;;6217522;23;20012;-86
2022/09/30 04:36:26;;;;;;;28.80;19.27;;;6.00;99.90;;;;;;6218026;23;20027;-86
2022/09/30 04:38:58;;;;;;;30.13;20.43;;;6.10;99.90;;;;;;6218499;23;20038;-86
2022/09/30 04:41:23;;;;;;;34.83;21.23;;;6.10;99.90;;;;;;6216754;23;20039;-86
2022/09/30 04:43:58;;;;;;;31.93;21.00;;;6.10;99.90;;;;;;6218379;23;20012;-85
2022/09/30 04:46:24;;;;;;;39.50;25.07;;;5.90;99.90;;;;;;6219820;23;20020;-86
2022/09/30 04:48:56;;;;;;;38.47;23.03;;;6.10;99.90;;;;;;6218332;23;20018;-86
2022/09/30 04:51:22;;;;;;;34.57;22.30;;;7.30;99.90;;;;;;6247117;23;20016;-86
2022/09/30 04:53:47;;;;;;;33.20;21.40;;;7.50;99.90;;;;;;6247050;23;20031;-86
2022/09/30 04:56:15;;;;;;;32.03;20.93;;;6.20;99.90;;;;;;6245795;23;20016;-86
2022/09/30 04:58:41;;;;;;;34.43;21.37;;;6.10;99.90;;;;;;6220308;23;20031;-86
2022/09/30 05:01:09;;;;;;;33.73;20.67;;;6.10;99.90;;;;;;6219785;23;20052;-86
2022/09/30 05:03:36;;;;;;;33.93;21.70;;;6.10;99.90;;;;;;6246368;23;20058;-86
2022/09/30 05:06:03;;;;;;;33.27;20.50;;;6.10;99.90;;;;;;6220303;23;20020;-86
2022/09/30 05:08:28;;;;;;;36.00;20.60;;;6.10;99.90;;;;;;6246566;23;20348;-86
2022/09/30 05:10:56;;;;;;;32.63;21.10;;;6.00;99.90;;;;;;6246563;23;20083;-87
2022/09/30 05:13:23;;;;;;;29.63;18.43;;;6.00;99.90;;;;;;6246694;23;20016;-86
2022/09/30 05:15:49;;;;;;;32.07;19.53;;;5.90;99.90;;;;;;6220162;23;20436;-87
2022/09/30 05:18:15;;;;;;;28.83;18.70;;;5.90;99.90;;;;;;6248092;23;20632;-86
2022/09/30 05:20:44;;;;;;;29.77;19.77;;;5.80;99.90;;;;;;6246577;23;20436;-86
2022/09/30 05:23:09;;;;;;;32.50;19.97;;;5.80;99.90;;;;;;6218877;23;20012;-86
2022/09/30 05:25:35;;;;;;;28.23;18.90;;;5.70;99.90;;;;;;6244222;23;20055;-86
2022/09/30 05:28:01;;;;;;;31.77;20.07;;;5.60;99.90;;;;;;6219658;23;20022;-86
2022/09/30 05:30:27;;;;;;;31.40;19.67;;;5.60;99.90;;;;;;6218735;23;20016;-86
2022/09/30 05:32:55;;;;;;;26.60;18.20;;;5.60;99.90;;;;;;6220134;23;20012;-86
2022/09/30 05:35:21;;;;;;;25.67;17.23;;;5.50;99.90;;;;;;6219394;23;20027;-85
2022/09/30 05:37:46;;;;;;;27.77;17.10;;;5.50;99.90;;;;;;6218520;23;20459;-86
2022/09/30 05:40:12;;;;;;;26.13;17.33;;;5.50;99.90;;;;;;6219442;23;20012;-86
2022/09/30 05:42:38;;;;;;;28.87;18.83;;;5.40;99.90;;;;;;6219648;23;20026;-85
2022/09/30 05:45:05;;;;;;;29.00;18.23;;;5.40;99.90;;;;;;6246232;23;20013;-87
2022/09/30 05:47:32;;;;;;;26.30;17.63;;;5.40;99.90;;;;;;6246809;23;20020;-87
2022/09/30 05:49:58;;;;;;;28.17;17.40;;;5.30;99.90;;;;;;6219118;23;20023;-86
2022/09/30 05:52:24;;;;;;;26.23;16.87;;;5.40;99.90;;;;;;6221712;23;20103;-88
2022/09/30 05:54:50;;;;;;;25.80;16.77;;;5.40;99.90;;;;;;6219822;23;20012;-87
2022/09/30 05:57:16;;;;;;;23.93;16.60;;;5.30;99.90;;;;;;6218944;23;20632;-85
2022/09/30 05:59:42;;;;;;;28.67;18.57;;;5.40;99.90;;;;;;6218314;23;20020;-90
2022/09/30 06:02:12;;;;;;;32.57;18.40;;;5.30;99.90;;;;;;6218887;23;20396;-87
2022/09/30 06:04:46;;;;;;;26.40;18.25;;;6.00;99.90;;;;;;6228173;23;20016;-92
2022/09/30 06:07:17;;;;;;;27.00;18.40;;;5.40;99.90;;;;;;6248085;23;20016;-95
2022/09/30 06:10:44;;;;;;;;;;;;;;;;;;;;;
2022/09/30 06:13:39;;;;;;;27.43;18.70;;;5.90;99.90;;;;;;6244994;22;20514;-89
2022/09/30 06:16:26;;;;;;;27.00;17.70;;;5.40;99.90;;;;;;6276864;22;20019;-89
2022/09/30 06:18:58;;;;;;;27.93;18.33;;;4.40;99.90;;;;;;6277328;22;20018;-90
2022/09/30 06:21:24;;;;;;;28.07;19.93;;;5.40;99.90;;;;;;6249435;22;20154;-91
2022/09/30 06:23:56;;;;;;;44.00;31.83;;;6.20;99.90;;;;;;6249856;22;20443;-91
2022/09/30 06:26:46;;;;;;;58.10;44.20;;;6.90;99.90;;;;;;6276636;22;20091;-88
2022/09/30 06:32:56;;;;;;;37.40;24.63;;;5.60;99.90;;;;;;6276980;22;20022;-88
2022/09/30 06:35:23;;;;;;;34.60;23.60;;;5.80;99.90;;;;;;6247675;22;20027;-88
2022/09/30 06:37:52;;;;;;;33.37;20.90;;;5.90;99.90;;;;;;6249792;22;20056;-88
2022/09/30 06:40:20;;;;;;;58.27;36.60;;;5.90;99.90;;;;;;6249163;22;20016;-88
2022/09/30 06:42:47;;;;;;;32.97;21.07;;;6.80;99.90;;;;;;6275813;22;20533;-87
2022/09/30 06:45:12;;;;;;;32.50;20.50;;;6.10;99.90;;;;;;6249353;22;20081;-88
2022/09/30 06:47:38;;;;;;;32.33;20.20;;;6.10;99.90;;;;;;6248864;22;20020;-88
2022/09/30 06:50:04;;;;;;;28.60;18.57;;;6.20;99.90;;;;;;6249733;22;20019;-88
2022/09/30 06:52:39;;;;;;;27.70;17.43;;;6.20;99.90;;;;;;6249200;22;20094;-89
2022/09/30 06:55:23;;;;;;;22.53;15.83;;;6.30;99.90;;;;;;6248206;22;20443;-88
2022/09/30 06:58:00;;;;;;;28.37;16.87;;;6.40;99.90;;;;;;6249289;22;20037;-89
2022/09/30 07:00:27;;;;;;;23.80;15.87;;;6.00;99.90;;;;;;6249528;22;20065;-89
2022/09/30 07:06:14;;;;;;;25.50;16.37;;;6.80;99.90;;;;;;6156093;23;20018;-88
2022/09/30 07:08:46;;;;;;;24.43;16.20;;;7.70;99.90;;;;;;6155333;23;20017;-89
2022/09/30 07:11:26;;;;;;;23.67;15.13;;;6.90;99.90;;;;;;6129195;23;20104;-89
2022/09/30 07:14:12;;;;;;;23.20;15.30;;;7.00;99.90;;;;;;6129815;23;20056;-88
2022/09/30 07:16:46;;;;;;;26.20;16.63;;;8.50;99.90;;;;;;6129191;23;20024;-90
2022/09/30 07:19:21;;;;;;;29.40;22.60;;;7.30;99.90;;;;;;6129178;23;20021;-88
2022/09/30 07:25:01;;;;;;;23.03;14.50;;;7.20;99.90;;;;;;6128454;23;20033;-88
2022/09/30 07:27:36;;;;;;;24.00;15.27;;;7.40;99.90;;;;;;6155018;23;20025;-88
2022/09/30 07:30:04;;;;;;;22.87;14.97;;;7.20;99.90;;;;;;6154520;23;20739;-89
2022/09/30 07:32:33;;;;;;;23.13;14.20;;;7.70;99.90;;;;;;6129111;23;20061;-89
2022/09/30 07:34:59;;;;;;;21.93;14.27;;;7.80;99.90;;;;;;6155537;23;20028;-87
2022/09/30 07:37:25;;;;;;;20.20;13.52;;;8.70;99.90;;;;;;6152567;23;20018;-89
2022/09/30 07:39:51;;;;;;;22.37;13.67;;;8.00;99.90;;;;;;6158152;23;20021;-89
2022/09/30 07:42:21;;;;;;;21.63;13.87;;;8.10;99.90;;;;;;6129091;23;20025;-89
2022/09/30 07:44:47;;;;;;;20.10;12.80;;;8.20;99.90;;;;;;6155169;23;20014;-89
2022/09/30 07:47:20;;;;;;;19.33;12.65;;;8.30;99.90;;;;;;6155366;23;20022;-89
2022/09/30 07:50:04;;;;;;;20.55;12.63;;;8.40;99.90;;;;;;6155626;23;20646;-89
2022/09/30 07:52:42;;;;;;;19.50;12.43;;;8.60;99.90;;;;;;6128356;23;20018;-89
2022/09/30 07:55:08;;;;;;;20.25;12.77;;;7.90;99.90;;;;;;6129160;23;20032;-90
2022/09/30 07:57:47;;;;;;;17.83;11.73;;;9.40;99.90;;;;;;6129543;23;20088;-89
2022/09/30 08:00:16;;;;;;;18.43;12.00;;;8.20;99.90;;;;;;6154328;23;20060;-89
2022/09/30 08:03:02;;;;;;;17.50;12.30;;;9.90;99.90;;;;;;6155762;23;20080;-90
2022/09/30 08:08:49;;;;;;;18.02;10.93;;;9.10;99.90;;;;;;6187978;23;19994;-89
2022/09/30 08:11:26;;;;;;;16.85;10.38;;;9.20;99.90;;;;;;6187881;23;20091;-89
2022/09/30 08:13:56;;;;;;;15.57;9.50;;;8.80;99.90;;;;;;6187664;23;20047;-89
2022/09/30 08:16:34;;;;;;;14.95;8.85;;;10.60;99.90;;;;;;6193190;23;20024;-89
2022/09/30 08:19:05;;;;;;;14.80;9.48;;;8.70;99.90;;;;;;6187586;23;20024;-88
2022/09/30 08:21:53;;;;;;;15.52;8.93;;;9.70;99.90;;;;;;6188028;23;20099;-89
2022/09/30 08:24:28;;;;;;;14.85;9.48;;;9.10;99.90;;;;;;6187826;23;20096;-88
2022/09/30 08:26:55;;;;;;;16.35;9.75;;;8.40;99.90;;;;;;6187795;23;20024;-89
2022/09/30 08:37:03;;;;;;;15.80;9.88;;;10.20;99.90;;;;;;6215067;22;20013;-88
2022/09/30 08:39:54;;;;;;;16.38;9.85;;;11.30;99.90;;;;;;6275563;22;20074;-88
2022/09/30 08:42:51;;;;;;;21.55;10.10;;;9.30;99.90;;;;;;6274545;22;20042;-88
2022/09/30 08:52:32;;;;;;;14.32;8.07;;;10.90;99.90;;;;;;6279376;22;20065;-88
2022/09/30 08:55:02;;;;;;;14.30;7.72;;;10.90;99.90;;;;;;6246647;22;20023;-87
2022/09/30 09:00:19;;;;;;;13.73;7.47;;;10.60;99.90;;;;;;6211146;22;20020;-87
2022/09/30 09:03:12;;;;;;;14.65;7.82;;;11.30;99.90;;;;;;6230578;23;20032;-87
2022/09/30 09:05:52;;;;;;;13.40;7.95;;;11.30;99.90;;;;;;6214202;23;20528;-87
2022/09/30 09:12:07;;;;;;;12.55;7.40;;;11.50;99.90;;;;;;6270023;22;20023;-88
2022/09/30 09:14:45;;;;;;;14.65;7.88;;;10.80;99.90;;;;;;6275444;22;20024;-88
2022/09/30 09:17:32;;;;;;;14.73;8.15;;;11.80;99.90;;;;;;6245997;22;20095;-88
2022/09/30 09:20:52;;;;;;;13.13;8.10;;;11.70;99.90;;;;;;6238831;22;20197;-88
2022/09/30 09:23:22;;;;;;;14.02;8.55;;;11.50;99.90;;;;;;6095696;23;20097;-88
2022/09/30 09:26:20;;;;;;;13.52;8.05;;;12.00;99.90;;;;;;6268136;22;20033;-93
2022/09/30 09:32:29;;;;;;;14.40;8.98;;;12.30;99.90;;;;;;6275431;22;20103;-85
2022/09/30 09:35:26;;;;;;;13.63;8.65;;;11.70;99.90;;;;;;6273609;22;20027;-86
2022/09/30 09:38:30;;;;;;;13.63;8.20;;;12.60;99.90;;;;;;6244030;22;20019;-86
2022/09/30 09:41:20;;;;;;;12.43;7.88;;;12.70;99.90;;;;;;6249746;22;20098;-86
2022/09/30 09:44:17;;;;;;;12.43;7.22;;;12.80;99.90;;;;;;6276781;22;20062;-86
2022/09/30 09:46:54;;;;;;;14.23;7.90;;;12.60;99.90;;;;;;6250043;22;20016;-86
2022/09/30 09:49:20;;;;;;;14.80;8.10;;;13.20;99.90;;;;;;6277092;22;20012;-86
2022/09/30 09:52:13;;;;;;;12.82;7.45;;;13.30;99.90;;;;;;6276741;22;20012;-86
2022/09/30 09:54:42;;;;;;;12.27;7.20;;;13.40;99.90;;;;;;6278029;22;20096;-87
2022/09/30 09:57:10;;;;;;;12.50;7.80;;;13.50;99.90;;;;;;6249897;22;20018;-86
2022/09/30 09:59:52;;;;;;;12.75;7.30;;;14.50;99.90;;;;;;6249234;22;20443;-86
2022/09/30 10:02:31;;;;;;;11.63;7.13;;;13.70;99.90;;;;;;6276888;22;20015;-86
2022/09/30 10:05:02;;;;;;;13.60;7.13;;;13.80;99.90;;;;;;6239454;22;20047;-86
2022/09/30 10:07:31;;;;;;;13.07;7.18;;;13.90;99.90;;;;;;6277329;22;20016;-86
2022/09/30 10:10:16;;;;;;;14.90;8.52;;;14.00;99.90;;;;;;6249843;22;20011;-85
2022/09/30 10:12:42;;;;;;;13.55;8.75;;;14.00;99.90;;;;;;6249194;22;20456;-86
2022/09/30 10:15:19;;;;;;;14.63;9.07;;;14.10;99.90;;;;;;6275374;22;20012;-86
2022/09/30 10:17:57;;;;;;;14.43;9.35;;;14.20;99.90;;;;;;6277254;22;20094;-86
2022/09/30 10:20:30;;;;;;;14.88;9.70;;;14.30;99.90;;;;;;6248383;22;20016;-86
2022/09/30 10:23:02;;;;;;;15.73;10.18;;;14.40;99.90;;;;;;6250221;22;20455;-85
2022/09/30 10:25:28;;;;;;;16.77;11.48;;;14.50;99.90;;;;;;6249288;22;20046;-85
2022/09/30 10:27:58;;;;;;;15.25;11.57;;;14.60;99.90;;;;;;6248674;22;20015;-86
2022/09/30 10:30:36;;;;;;;16.70;11.50;;;15.70;99.90;;;;;;6276734;22;20012;-85
2022/09/30 10:33:03;;;;;;;16.55;10.90;;;15.40;99.90;;;;;;6248328;22;20094;-85
2022/09/30 10:35:32;;;;;;;16.77;12.13;;;15.00;99.90;;;;;;6271858;22;20024;-86
2022/09/30 10:38:12;;;;;;;18.75;13.43;;;15.10;99.90;;;;;;6249668;22;20016;-86
2022/09/30 10:40:51;;;;;;;18.17;13.10;;;15.50;99.90;;;;;;6248563;22;20061;-86
2022/09/30 10:50:05;;;;;;;17.15;11.85;;;15.40;99.90;;;;;;6215766;23;20015;-85
2022/09/30 10:53:14;;;;;;;15.00;11.07;;;15.80;99.90;;;;;;6215532;23;20020;-86
2022/09/30 10:56:00;;;;;;;16.23;10.45;;;15.80;99.90;;;;;;6181378;23;20099;-87
2022/09/30 10:59:15;;;;;;;16.83;10.38;;;15.90;99.90;;;;;;6215983;23;20012;-87
2022/09/30 11:01:47;;;;;;;16.55;10.38;;;15.40;99.90;;;;;;6187614;23;20095;-86
2022/09/30 11:04:24;;;;;;;14.70;9.35;;;17.20;99.90;;;;;;6187980;23;20012;-87
2022/09/30 11:07:11;;;;;;;13.80;9.55;;;17.30;99.90;;;;;;6189295;23;20017;-87
2022/09/30 11:09:56;;;;;;;14.25;9.50;;;16.00;99.90;;;;;;6188131;23;20017;-85
2022/09/30 11:12:49;;;;;;;16.13;9.82;;;15.90;99.90;;;;;;6188910;23;20016;-87
2022/09/30 11:15:20;;;;;;;15.75;9.65;;;16.10;99.90;;;;;;6187918;23;20433;-87
2022/09/30 11:17:52;;;;;;;16.52;10.40;;;17.10;99.90;;;;;;6189696;23;20024;-88
2022/09/30 11:20:42;;;;;;;15.75;9.27;;;16.00;99.90;;;;;;6215620;23;20048;-88
2022/09/30 11:23:39;;;;;;;15.70;10.68;;;16.30;99.90;;;;;;6187857;23;20047;-89
2022/09/30 11:26:31;;;;;;;16.40;11.15;;;16.10;99.90;;;;;;6215955;23;20095;-88
2022/09/30 11:29:48;;;;;;;15.68;10.40;;;15.90;99.90;;;;;;6187574;23;20441;-86
2022/09/30 11:32:29;;;;;;;14.65;10.02;;;16.10;99.90;;;;;;6205888;23;20027;-85
2022/09/30 11:35:22;;;;;;;17.13;10.98;;;16.30;99.90;;;;;;6188669;23;20095;-86
2022/09/30 11:38:25;;;;;;;17.50;11.57;;;16.40;99.90;;;;;;6214577;23;20013;-87
2022/09/30 11:40:59;;;;;;;17.45;11.65;;;16.70;99.90;;;;;;6189104;23;20091;-86
2022/09/30 11:43:54;;;;;;;17.88;11.48;;;16.90;99.90;;;;;;6187649;23;20021;-86
2022/09/30 11:46:46;;;;;;;17.20;11.80;;;17.00;99.90;;;;;;6163030;23;20086;-93
2022/09/30 11:58:19;;;;;;;17.10;11.35;;;17.00;99.90;;;;;;6214582;23;20019;-85
2022/09/30 12:00:50;;;;;;;;;;;18.10;99.90;;;;;;6215845;23;20024;-85
2022/09/30 12:03:34;;;;;;;19.95;11.77;;;17.50;99.90;;;;;;6207997;22;19923;-89
2022/09/30 12:06:14;;;;;;;16.05;10.88;;;17.10;99.90;;;;;;6217855;23;20026;-89
2022/09/30 12:09:10;;;;;;;17.10;10.75;;;17.20;99.90;;;;;;6218491;22;20035;-89
2022/09/30 12:11:46;;;;;;;15.13;10.25;;;17.30;99.90;;;;;;6239689;23;20087;-88
2022/09/30 12:14:34;;;;;;;17.88;11.40;;;17.20;99.90;;;;;;6218203;23;20023;-89
2022/09/30 12:17:47;;;;;;;18.55;10.98;;;18.00;99.90;;;;;;6245765;23;20047;-86
2022/09/30 12:20:40;;;;;;;17.00;11.77;;;16.90;99.90;;;;;;6185014;23;20020;-89
2022/09/30 12:23:33;;;;;;;15.57;10.43;;;17.50;99.90;;;;;;6218216;23;20027;-89
2022/09/30 12:26:03;;;;;;;18.20;10.27;;;17.30;99.90;;;;;;6222063;23;20020;-88
2022/09/30 12:32:02;;;;;;;13.77;9.30;;;17.90;99.90;;;;;;6263318;22;20019;-88
2022/09/30 12:35:12;;;;;;;15.02;10.05;;;17.40;99.90;;;;;;6274921;22;20019;-87
2022/09/30 12:38:09;;;;;;;14.43;10.30;;;17.90;99.90;;;;;;6227954;22;20028;-87
2022/09/30 12:41:14;;;;;;;14.63;9.95;;;17.50;99.90;;;;;;6186868;22;20095;-87
2022/09/30 12:44:25;;;;;;;17.67;10.35;;;17.40;99.90;;;;;;6277026;22;20043;-88
2022/09/30 12:47:14;;;;;;;17.77;10.10;;;17.40;99.90;;;;;;6254925;22;20019;-88
2022/09/30 12:49:47;;;;;;;14.98;10.30;;;17.40;99.90;;;;;;6248722;22;20089;-88
2022/09/30 12:52:32;;;;;;;16.67;10.15;;;18.50;99.90;;;;;;6248374;22;20082;-88
2022/09/30 12:55:20;;;;;;;15.48;10.10;;;17.40;99.90;;;;;;6247878;22;20019;-88
2022/09/30 12:58:01;;;;;;;15.32;9.70;;;17.00;99.90;;;;;;6248614;22;20016;-88
2022/09/30 13:00:30;;;;;;;15.05;9.10;;;18.20;99.90;;;;;;6247601;22;20027;-88
2022/09/30 13:03:18;;;;;;;13.52;8.60;;;17.30;99.90;;;;;;6278381;22;20463;-88
2022/09/30 13:06:05;;;;;;;18.20;10.50;;;17.30;99.90;;;;;;6272107;22;20023;-87
2022/09/30 13:08:47;;;;;;;16.48;10.77;;;17.10;99.90;;;;;;6249772;22;20442;-87
2022/09/30 13:11:32;;;;;;;16.05;10.98;;;16.90;99.90;;;;;;6277497;22;20447;-88
2022/09/30 13:14:52;;;;;;;17.27;11.38;;;16.90;99.90;;;;;;6276325;22;20394;-87
2022/09/30 13:17:22;;;;;;;16.40;10.75;;;16.70;99.90;;;;;;6251255;22;20336;-86
2022/09/30 13:19:51;;;;;;;16.08;11.32;;;17.80;99.90;;;;;;6229819;22;20027;-86
2022/09/30 13:22:53;;;;;;;15.98;11.05;;;18.00;99.90;;;;;;6250008;22;20015;-87
2022/09/30 13:25:26;;;;;;;16.67;11.27;;;16.40;99.90;;;;;;6250878;22;20054;-87
2022/09/30 13:28:13;;;;;;;19.52;11.52;;;16.30;99.90;;;;;;6249923;22;20016;-88
2022/09/30 13:34:00;;;;;;;19.17;12.35;;;16.70;99.90;;;;;;6249813;22;20019;-86
2022/09/30 13:36:50;;;;;;;16.23;11.27;;;17.20;99.90;;;;;;6276183;22;20110;-87
2022/09/30 13:40:01;;;;;;;18.08;10.88;;;16.80;99.90;;;;;;6256258;22;20372;-87
2022/09/30 13:42:48;;;;;;;17.33;11.80;;;18.40;99.90;;;;;;6277559;22;20026;-86
2022/09/30 13:48:31;;;;;;;;;;;17.10;99.90;;;;;;6150270;23;20040;-88
2022/09/30 13:51:24;;;;;;;16.92;11.82;;;18.00;99.90;;;;;;6158629;23;19916;-88
2022/09/30 13:59:56;;;;;;;16.20;11.50;;;17.10;99.90;;;;;;6185255;22;20185;-88
2022/09/30 14:02:57;;;;;;;18.67;12.27;;;17.20;99.90;;;;;;6212618;23;20499;-88
2022/09/30 14:09:06;;;;;;;16.73;12.70;;;17.00;99.90;;;;;;6214177;23;20060;-88
2022/09/30 14:11:53;;;;;;;17.73;12.15;;;16.90;99.90;;;;;;6212799;23;20016;-89
2022/09/30 14:14:52;;;;;;;16.60;12.10;;;17.10;99.90;;;;;;6220848;22;20024;-88
2022/09/30 14:18:09;;;;;;;16.58;12.05;;;17.00;99.90;;;;;;6218298;23;20424;-86
2022/09/30 14:20:58;;;;;;;17.73;11.85;;;16.90;99.90;;;;;;6218540;23;20091;-89
2022/09/30 14:23:29;;;;;;;16.25;11.93;;;16.80;99.90;;;;;;6218616;23;20020;-89
2022/09/30 14:32:45;;;;;;;15.05;11.45;;;17.10;99.90;;;;;;6217759;23;20016;-89
2022/09/30 14:35:29;;;;;;;15.93;11.85;;;16.90;99.90;;;;;;6218215;23;20101;-89
2022/09/30 14:38:20;;;;;;;16.27;11.98;;;18.00;99.90;;;;;;6247222;23;20015;-88
2022/09/30 14:41:19;;;;;;;17.08;12.52;;;16.80;99.90;;;;;;6244503;23;20020;-89
2022/09/30 14:44:16;;;;;;;16.35;12.90;;;16.70;99.90;;;;;;6219083;23;20084;-89
2022/09/30 14:46:47;;;;;;;19.00;14.00;;;16.10;99.90;;;;;;6218741;23;20091;-89
2022/09/30 14:49:39;;;;;;;18.35;13.30;;;17.40;99.90;;;;;;6210117;22;20755;-86
2022/09/30 14:52:45;;;;;;;19.25;14.18;;;18.00;99.90;;;;;;6253114;22;20075;-89